Time;durP1;ratioP1;P1;durP2;ratioP2;P2;SDS_P1;SDS_P2;PMS_P1;PMS_P2;Temp;Humidity;BMP_temperature;BMP_pressure;BME280_temperature;BME280_humidity;BME280_pressure;Samples;Min_cycle;Max_cycle;Signal;HPM_P1;HPM_P2
2023/06/29 00:01:59;;;;;;;2.72;2.47;;;18.90;99.90;;;;;;5101036;28;20251;-59
2023/06/29 00:04:27;;;;;;;6.75;2.45;;;18.80;99.90;;;;;;5112655;28;20203;-63
2023/06/29 00:06:55;;;;;;;5.95;2.05;;;18.80;99.90;;;;;;5098400;28;20232;-61
2023/06/29 00:09:23;;;;;;;2.42;2.13;;;18.80;99.90;;;;;;5106626;28;20230;-60
2023/06/29 00:11:51;;;;;;;4.35;2.35;;;18.70;99.90;;;;;;5101131;28;20235;-61
2023/06/29 00:14:18;;;;;;;8.30;2.40;;;18.70;99.90;;;;;;5105441;28;20217;-60
2023/06/29 00:16:50;;;;;;;2.33;2.03;;;18.70;99.90;;;;;;5105202;28;20254;-61
2023/06/29 00:19:20;;;;;;;5.38;2.45;;;18.70;99.90;;;;;;5108796;28;20196;-61
2023/06/29 00:21:48;;;;;;;5.15;2.90;;;18.60;99.90;;;;;;5098466;28;20203;-62
2023/06/29 00:24:16;;;;;;;2.40;2.20;;;18.60;99.90;;;;;;5119073;28;20199;-61
2023/06/29 00:26:44;;;;;;;4.68;2.83;;;18.50;99.90;;;;;;5111750;28;20228;-61
2023/06/29 00:29:12;;;;;;;3.28;2.50;;;18.50;99.90;;;;;;5114842;28;20222;-62
2023/06/29 00:31:40;;;;;;;3.83;2.53;;;18.40;99.90;;;;;;5097909;28;20231;-60
2023/06/29 00:34:10;;;;;;;3.78;2.25;;;18.30;99.90;;;;;;5106686;28;20195;-60
2023/06/29 00:36:38;;;;;;;6.43;2.70;;;18.30;99.90;;;;;;5101375;28;20228;-60
2023/06/29 00:39:05;;;;;;;2.40;2.25;;;18.20;99.90;;;;;;5103516;28;20273;-60
2023/06/29 00:41:33;;;;;;;2.40;2.20;;;18.20;99.90;;;;;;5107054;28;20745;-60
2023/06/29 00:44:01;;;;;;;2.92;2.25;;;18.20;99.90;;;;;;5100333;28;20235;-60
2023/06/29 00:46:29;;;;;;;3.38;2.40;;;18.20;99.90;;;;;;5101915;28;20248;-60
2023/06/29 00:48:57;;;;;;;2.70;2.00;;;18.20;99.90;;;;;;5110146;28;20251;-60
2023/06/29 00:51:26;;;;;;;4.07;2.22;;;18.20;99.90;;;;;;5095385;28;20676;-60
2023/06/29 00:53:54;;;;;;;4.22;2.50;;;18.20;99.90;;;;;;5108325;28;20253;-60
2023/06/29 00:56:22;;;;;;;2.75;2.42;;;18.20;99.90;;;;;;5101414;28;20220;-61
2023/06/29 00:58:50;;;;;;;2.65;2.20;;;18.20;99.90;;;;;;5103932;28;20210;-61
2023/06/29 01:01:18;;;;;;;7.80;2.38;;;18.20;99.90;;;;;;5109914;28;20242;-60
2023/06/29 01:03:46;;;;;;;2.38;2.05;;;18.20;99.90;;;;;;5107088;28;20207;-60
2023/06/29 01:06:17;;;;;;;2.97;2.53;;;18.10;99.90;;;;;;5099828;28;20294;-59
2023/06/29 01:08:47;;;;;;;2.38;2.15;;;18.10;99.90;;;;;;5100678;28;20249;-60
2023/06/29 01:11:15;;;;;;;2.63;2.25;;;18.10;99.90;;;;;;5101412;28;20278;-59
2023/06/29 01:13:43;;;;;;;4.63;2.63;;;18.10;99.90;;;;;;5102666;28;20896;-60
2023/06/29 01:16:11;;;;;;;4.57;2.60;;;18.10;99.90;;;;;;5108083;22;20238;-76
2023/06/29 01:18:39;;;;;;;4.47;2.40;;;18.10;99.90;;;;;;5088404;28;20200;-76
2023/06/29 01:21:07;;;;;;;4.25;2.67;;;18.00;99.90;;;;;;5096490;28;20236;-75
2023/06/29 01:23:36;;;;;;;7.07;2.63;;;18.00;99.90;;;;;;5081152;28;20201;-76
2023/06/29 01:26:06;;;;;;;4.30;2.17;;;18.00;99.90;;;;;;5061476;28;20590;-75
2023/06/29 01:28:38;;;;;;;5.45;2.55;;;17.90;99.90;;;;;;5059250;28;20306;-76
2023/06/29 01:31:06;;;;;;;6.10;2.80;;;17.90;99.90;;;;;;5059549;28;20231;-76
2023/06/29 01:33:34;;;;;;;5.03;2.45;;;17.90;99.90;;;;;;5051490;28;20231;-77
2023/06/29 01:36:04;;;;;;;2.75;2.47;;;17.80;99.90;;;;;;5077306;28;20291;-77
2023/06/29 01:38:35;;;;;;;2.90;2.30;;;17.80;99.90;;;;;;5061393;28;20201;-76
2023/06/29 01:41:03;;;;;;;3.35;2.78;;;17.80;99.90;;;;;;5059393;28;20204;-75
2023/06/29 01:43:32;;;;;;;7.72;2.40;;;17.70;99.90;;;;;;5059100;28;20209;-75
2023/06/29 01:46:00;;;;;;;5.30;2.50;;;17.70;99.90;;;;;;5048003;28;20193;-75
2023/06/29 01:48:28;;;;;;;3.70;2.60;;;17.70;99.90;;;;;;5076690;28;20250;-75
2023/06/29 01:50:56;;;;;;;2.60;2.40;;;17.70;99.90;;;;;;5081998;28;20310;-75
2023/06/29 01:53:23;;;;;;;3.38;2.38;;;17.70;99.90;;;;;;5077217;28;20706;-75
2023/06/29 01:55:51;;;;;;;4.05;2.83;;;17.60;99.90;;;;;;5058863;28;20233;-75
2023/06/29 01:58:19;;;;;;;6.18;2.60;;;17.70;99.90;;;;;;5058206;28;20205;-75
2023/06/29 02:00:49;;;;;;;3.00;2.17;;;17.70;99.90;;;;;;5053674;28;20643;-78
2023/06/29 02:03:16;;;;;;;2.45;2.25;;;17.60;99.90;;;;;;5057941;28;20202;-77
2023/06/29 02:05:44;;;;;;;8.18;2.83;;;17.60;99.90;;;;;;5074575;28;20208;-77
2023/06/29 02:08:12;;;;;;;4.68;2.97;;;17.60;99.90;;;;;;5082909;28;20291;-77
2023/06/29 02:10:40;;;;;;;4.38;2.60;;;17.60;99.90;;;;;;5070799;28;20216;-77
2023/06/29 02:13:08;;;;;;;3.85;2.28;;;17.60;99.90;;;;;;5067874;28;20363;-77
2023/06/29 02:15:36;;;;;;;4.05;2.80;;;17.60;99.90;;;;;;5064014;28;20255;-77
2023/06/29 02:18:05;;;;;;;5.70;2.50;;;17.60;99.90;;;;;;5050946;28;20202;-77
2023/06/29 02:20:33;;;;;;;2.90;2.40;;;17.60;99.90;;;;;;5066435;28;20262;-77
2023/06/29 02:23:01;;;;;;;7.53;2.53;;;17.60;99.90;;;;;;5058917;28;20226;-77
2023/06/29 02:25:29;;;;;;;6.95;2.20;;;17.50;99.90;;;;;;5071749;28;20746;-77
2023/06/29 02:27:57;;;;;;;4.20;2.65;;;17.50;99.90;;;;;;5070419;28;20483;-77
2023/06/29 02:30:25;;;;;;;4.03;2.35;;;17.50;99.90;;;;;;5080990;28;20217;-77
2023/06/29 02:32:53;;;;;;;2.33;2.22;;;17.40;99.90;;;;;;5061035;28;20291;-77
2023/06/29 02:35:22;;;;;;;4.28;2.58;;;17.40;99.90;;;;;;5055622;28;20209;-77
2023/06/29 02:37:50;;;;;;;7.95;2.80;;;17.40;99.90;;;;;;5060119;28;20196;-75
2023/06/29 02:40:18;;;;;;;2.90;2.70;;;17.40;99.90;;;;;;5068179;28;20250;-76
2023/06/29 02:42:45;;;;;;;4.00;2.45;;;17.40;99.90;;;;;;5071637;28;20578;-75
2023/06/29 02:45:13;;;;;;;4.05;2.55;;;17.30;99.90;;;;;;5068984;28;20208;-76
2023/06/29 02:47:41;;;;;;;6.15;2.80;;;17.30;99.90;;;;;;5069324;28;20228;-75
2023/06/29 02:50:10;;;;;;;3.95;2.45;;;17.30;99.90;;;;;;5058566;28;20619;-75
2023/06/29 02:52:39;;;;;;;3.42;2.83;;;17.30;99.90;;;;;;5053571;28;20267;-75
2023/06/29 02:55:07;;;;;;;9.23;2.75;;;17.30;99.90;;;;;;5067835;28;20233;-75
2023/06/29 02:57:36;;;;;;;2.67;2.47;;;17.30;99.90;;;;;;5064980;28;20265;-76
2023/06/29 03:00:05;;;;;;;3.83;2.75;;;17.20;99.90;;;;;;5058687;28;20200;-75
2023/06/29 03:02:33;;;;;;;5.22;2.80;;;17.20;99.90;;;;;;5056129;28;20229;-75
2023/06/29 03:05:01;;;;;;;3.00;2.67;;;17.20;99.90;;;;;;5077865;28;20204;-75
2023/06/29 03:07:28;;;;;;;4.15;2.38;;;17.10;99.90;;;;;;5069407;28;20709;-75
2023/06/29 03:09:58;;;;;;;3.40;2.65;;;17.10;99.90;;;;;;5049917;28;20663;-75
2023/06/29 03:12:26;;;;;;;5.50;2.90;;;17.10;99.90;;;;;;5066576;28;20861;-75
2023/06/29 03:14:54;;;;;;;2.72;2.42;;;17.10;99.90;;;;;;5066470;28;20197;-75
2023/06/29 03:17:24;;;;;;;3.72;2.50;;;17.10;99.90;;;;;;5052395;28;20248;-75
2023/06/29 03:19:52;;;;;;;4.53;2.88;;;17.10;99.90;;;;;;5056063;28;20197;-75
2023/06/29 03:22:20;;;;;;;4.20;2.63;;;17.10;99.90;;;;;;5063190;28;20286;-75
2023/06/29 03:24:48;;;;;;;2.65;2.45;;;17.10;99.90;;;;;;5064939;28;20288;-75
2023/06/29 03:27:17;;;;;;;3.05;2.67;;;17.20;99.90;;;;;;5067009;28;20250;-75
2023/06/29 03:29:45;;;;;;;4.10;2.70;;;17.10;99.90;;;;;;5056682;28;20643;-74
2023/06/29 03:32:13;;;;;;;4.35;2.97;;;17.10;99.90;;;;;;5050011;28;20271;-75
2023/06/29 03:34:41;;;;;;;3.15;2.80;;;17.20;99.90;;;;;;5062369;28;20228;-76
2023/06/29 03:37:10;;;;;;;5.03;2.78;;;17.10;99.90;;;;;;5053663;28;20201;-75
2023/06/29 03:39:38;;;;;;;4.78;2.90;;;17.10;99.90;;;;;;5066841;28;20216;-76
2023/06/29 03:42:06;;;;;;;4.50;2.58;;;17.10;99.90;;;;;;5060611;28;20248;-76
2023/06/29 03:44:36;;;;;;;3.63;2.63;;;17.10;99.90;;;;;;5066939;28;20233;-76
2023/06/29 03:47:04;;;;;;;4.50;3.10;;;17.10;99.90;;;;;;5054123;28;20269;-76
2023/06/29 03:49:32;;;;;;;4.57;2.90;;;17.10;99.90;;;;;;5058395;28;20305;-76
2023/06/29 03:52:00;;;;;;;4.10;2.80;;;17.00;99.90;;;;;;5054701;28;20702;-76
2023/06/29 03:54:28;;;;;;;8.82;3.65;;;17.00;99.90;;;;;;5049928;28;20255;-76
2023/06/29 03:56:56;;;;;;;4.35;3.15;;;17.00;99.90;;;;;;5059480;28;20200;-76
2023/06/29 03:59:24;;;;;;;4.82;3.00;;;17.10;99.90;;;;;;5059320;28;20200;-75
2023/06/29 04:01:53;;;;;;;4.05;2.88;;;17.10;99.90;;;;;;5049764;28;20209;-76
2023/06/29 04:04:21;;;;;;;5.47;3.30;;;17.10;99.90;;;;;;5065777;28;20292;-76
2023/06/29 04:06:49;;;;;;;4.25;3.30;;;17.20;99.90;;;;;;5086311;28;20735;-76
2023/06/29 04:09:17;;;;;;;5.32;3.42;;;17.20;99.90;;;;;;5089590;28;20215;-76
2023/06/29 04:11:45;;;;;;;5.55;3.25;;;17.20;99.90;;;;;;5062970;28;20333;-75
2023/06/29 04:14:13;;;;;;;4.00;3.20;;;17.30;99.90;;;;;;5065985;28;20225;-75
2023/06/29 04:16:40;;;;;;;7.15;3.10;;;17.30;99.90;;;;;;5057614;28;20262;-76
2023/06/29 04:19:10;;;;;;;3.28;2.97;;;17.30;99.90;;;;;;5058311;28;20197;-77
2023/06/29 04:21:37;;;;;;;7.70;3.05;;;17.30;99.90;;;;;;5050445;28;20283;-72
2023/06/29 04:24:06;;;;;;;3.30;3.00;;;17.40;99.90;;;;;;5060793;28;20350;-73
2023/06/29 04:26:34;;;;;;;7.43;3.45;;;17.40;99.90;;;;;;5066432;28;20240;-74
2023/06/29 04:29:05;;;;;;;6.60;3.83;;;17.40;99.90;;;;;;5064901;28;20283;-74
2023/06/29 04:31:33;;;;;;;6.85;3.53;;;17.50;99.90;;;;;;5076416;28;20298;-73
2023/06/29 04:34:02;;;;;;;4.55;3.90;;;17.50;99.90;;;;;;5074603;28;20231;-74
2023/06/29 04:36:31;;;;;;;6.65;3.85;;;17.50;99.90;;;;;;5069905;28;20201;-74
2023/06/29 04:39:00;;;;;;;3.65;3.40;;;17.50;99.90;;;;;;5066321;28;20696;-74
2023/06/29 04:41:31;;;;;;;6.95;3.60;;;17.60;99.90;;;;;;5067926;28;20225;-74
2023/06/29 04:43:59;;;;;;;5.05;3.28;;;17.60;99.90;;;;;;5069773;28;20350;-73
2023/06/29 04:46:28;;;;;;;3.75;2.92;;;17.60;99.90;;;;;;5072938;28;20201;-74
2023/06/29 04:48:57;;;;;;;4.97;3.47;;;17.70;99.90;;;;;;5071319;28;20230;-74
2023/06/29 04:51:25;;;;;;;5.50;3.75;;;17.70;99.90;;;;;;5073782;28;20256;-74
2023/06/29 04:53:54;;;;;;;7.45;3.80;;;17.80;99.90;;;;;;5053602;28;20209;-74
2023/06/29 04:56:22;;;;;;;6.82;3.63;;;17.80;99.90;;;;;;5049638;28;20232;-73
2023/06/29 04:58:50;;;;;;;7.50;3.45;;;17.90;99.90;;;;;;5058214;28;20262;-74
2023/06/29 05:01:18;;;;;;;6.82;3.35;;;17.90;99.90;;;;;;5050289;28;20291;-74
2023/06/29 05:03:46;;;;;;;9.35;4.47;;;18.00;99.90;;;;;;5052408;28;20208;-74
2023/06/29 05:06:14;;;;;;;6.57;3.88;;;18.00;99.90;;;;;;5057909;28;20759;-74
2023/06/29 05:08:42;;;;;;;6.30;3.55;;;18.10;99.90;;;;;;5060056;28;20589;-75
2023/06/29 05:11:11;;;;;;;4.85;3.25;;;18.20;99.90;;;;;;5056494;28;20975;-75
2023/06/29 05:13:39;;;;;;;5.32;3.33;;;18.20;99.90;;;;;;5060111;28;20288;-75
2023/06/29 05:16:07;;;;;;;8.07;3.72;;;18.30;99.90;;;;;;5059243;28;20228;-76
2023/06/29 05:18:36;;;;;;;3.83;3.25;;;18.40;99.90;;;;;;5059462;28;20282;-75
2023/06/29 05:21:04;;;;;;;6.93;2.30;;;18.30;99.90;;;;;;5055699;28;20338;-72
2023/06/29 05:23:32;;;;;;;2.78;2.10;;;18.40;99.90;;;;;;5058362;28;20201;-72
2023/06/29 05:26:00;;;;;;;2.78;2.42;;;18.70;99.90;;;;;;5064427;28;20237;-72
2023/06/29 05:28:29;;;;;;;3.25;2.08;;;19.10;99.90;;;;;;5060511;28;20196;-74
2023/06/29 05:30:57;;;;;;;6.70;2.78;;;19.40;99.90;;;;;;5053982;28;20430;-74
2023/06/29 05:33:25;;;;;;;2.50;2.38;;;19.80;99.90;;;;;;5050581;28;20657;-74
2023/06/29 05:35:52;;;;;;;5.63;3.00;;;20.00;99.90;;;;;;5061571;28;20205;-74
2023/06/29 05:38:20;;;;;;;3.67;3.00;;;20.20;99.90;;;;;;5058391;28;20189;-74
2023/06/29 05:40:48;;;;;;;10.07;2.92;;;20.30;99.90;;;;;;5054599;28;20624;-74
2023/06/29 05:43:16;;;;;;;4.75;3.30;;;20.40;99.90;;;;;;5064902;28;20236;-74
2023/06/29 05:45:45;;;;;;;6.00;3.00;;;20.40;99.90;;;;;;5051893;28;20221;-74
2023/06/29 05:48:13;;;;;;;6.53;3.42;;;20.50;99.90;;;;;;5059324;28;20599;-74
2023/06/29 05:50:41;;;;;;;5.18;3.15;;;20.60;99.90;;;;;;5060058;28;20240;-74
2023/06/29 05:53:09;;;;;;;8.48;3.22;;;20.70;99.90;;;;;;5050961;28;20309;-74
2023/06/29 05:55:37;;;;;;;7.18;3.30;;;20.70;99.90;;;;;;5066939;28;20292;-74
2023/06/29 05:58:05;;;;;;;4.43;3.30;;;20.70;99.90;;;;;;5060132;28;20197;-74
2023/06/29 06:00:33;;;;;;;7.72;3.10;;;20.70;99.90;;;;;;5060305;28;20309;-74
2023/06/29 06:03:02;;;;;;;5.05;3.53;;;20.80;99.90;;;;;;5066521;28;20744;-74
2023/06/29 06:05:31;;;;;;;5.55;3.40;;;20.70;99.90;;;;;;5054361;28;20212;-74
2023/06/29 06:07:59;;;;;;;3.35;3.05;;;20.50;99.90;;;;;;5064659;28;20201;-75
2023/06/29 06:10:27;;;;;;;5.07;3.13;;;20.40;99.90;;;;;;5060274;28;20211;-74
2023/06/29 06:12:55;;;;;;;7.82;3.80;;;20.50;99.90;;;;;;5070771;28;20251;-75
2023/06/29 06:15:23;;;;;;;5.60;3.35;;;20.60;99.90;;;;;;5078124;28;20204;-74
2023/06/29 06:17:50;;;;;;;4.65;3.30;;;20.50;99.90;;;;;;5081708;28;20252;-74
2023/06/29 06:20:20;;;;;;;4.05;2.78;;;20.50;99.90;;;;;;5076148;28;20258;-74
2023/06/29 06:22:48;;;;;;;4.72;3.20;;;20.60;99.90;;;;;;5083991;28;20284;-74
2023/06/29 06:25:17;;;;;;;5.63;3.45;;;20.70;99.90;;;;;;5086938;28;20700;-74
2023/06/29 06:27:45;;;;;;;5.75;3.20;;;20.80;99.90;;;;;;5077653;28;20205;-74
2023/06/29 06:30:13;;;;;;;9.45;3.65;;;20.80;99.90;;;;;;5082258;28;20207;-74
2023/06/29 06:32:41;;;;;;;4.93;3.60;;;20.80;99.90;;;;;;5113797;22;20266;-61
2023/06/29 06:35:09;;;;;;;4.03;2.90;;;20.80;99.90;;;;;;5109426;28;20200;-61
2023/06/29 06:37:39;;;;;;;3.58;2.85;;;20.80;99.90;;;;;;5101362;28;20588;-61
2023/06/29 06:40:08;;;;;;;6.47;3.13;;;20.90;99.90;;;;;;5076369;28;20192;-61
2023/06/29 06:42:36;;;;;;;5.85;3.30;;;21.00;99.90;;;;;;5086796;28;20253;-61
2023/06/29 06:45:04;;;;;;;4.40;3.20;;;21.10;99.90;;;;;;5095498;28;20243;-61
2023/06/29 06:47:33;;;;;;;3.22;2.97;;;21.10;99.90;;;;;;5082993;28;20220;-61
2023/06/29 06:50:01;;;;;;;2.63;2.50;;;21.20;99.90;;;;;;5090732;28;20196;-61
2023/06/29 06:52:28;;;;;;;3.45;2.42;;;21.30;99.90;;;;;;5106975;28;20302;-63
2023/06/29 06:54:58;;;;;;;4.90;2.53;;;21.50;99.90;;;;;;5101578;28;20234;-63
2023/06/29 06:57:25;;;;;;;2.53;2.30;;;21.50;99.90;;;;;;5092612;28;20289;-63
2023/06/29 06:59:53;;;;;;;6.82;2.80;;;21.50;99.90;;;;;;5098280;28;20918;-62
2023/06/29 07:02:21;;;;;;;2.25;1.92;;;21.40;99.90;;;;;;5083590;28;20233;-63
2023/06/29 07:04:49;;;;;;;2.88;2.42;;;21.50;99.90;;;;;;5072836;28;20255;-63
2023/06/29 07:07:17;;;;;;;2.60;2.28;;;21.50;99.90;;;;;;5074170;28;20231;-63
2023/06/29 07:09:45;;;;;;;3.35;2.17;;;21.50;99.90;;;;;;5088983;28;20201;-63
2023/06/29 07:12:14;;;;;;;2.75;2.28;;;21.60;99.90;;;;;;5082271;28;20196;-63
2023/06/29 07:14:42;;;;;;;7.60;2.10;;;21.60;99.90;;;;;;5089270;28;20236;-62
2023/06/29 07:17:10;;;;;;;2.53;2.08;;;21.60;99.90;;;;;;5091471;22;20566;-61
2023/06/29 07:19:38;;;;;;;3.00;2.17;;;21.70;99.90;;;;;;5089833;28;20254;-61
2023/06/29 07:22:09;;;;;;;6.10;2.38;;;21.70;99.90;;;;;;5081288;28;20231;-60
2023/06/29 07:24:40;;;;;;;4.30;2.65;;;21.80;99.90;;;;;;5081027;28;20236;-61
2023/06/29 07:27:08;;;;;;;4.38;3.10;;;21.80;99.90;;;;;;5089585;28;20224;-60
2023/06/29 07:29:37;;;;;;;5.95;2.28;;;21.90;99.90;;;;;;5076874;28;20228;-60
2023/06/29 07:32:06;;;;;;;5.43;2.95;;;22.00;99.90;;;;;;5093351;28;20192;-61
2023/06/29 07:34:33;;;;;;;3.35;2.30;;;22.00;99.90;;;;;;5093143;28;20763;-61
2023/06/29 07:37:01;;;;;;;3.58;2.08;;;22.10;99.90;;;;;;5093285;28;20256;-60
2023/06/29 07:39:29;;;;;;;6.10;2.17;;;22.20;99.90;;;;;;5093370;28;20581;-60
2023/06/29 07:41:57;;;;;;;3.08;2.10;;;22.20;99.90;;;;;;5093228;28;20196;-60
2023/06/29 07:44:25;;;;;;;5.35;2.10;;;22.30;99.90;;;;;;5093074;28;20619;-61
2023/06/29 07:46:54;;;;;;;3.83;2.30;;;22.50;99.90;;;;;;5092743;28;20323;-60
2023/06/29 07:49:22;;;;;;;2.92;1.92;;;22.60;99.90;;;;;;5092887;28;20286;-59
2023/06/29 07:51:50;;;;;;;2.45;1.73;;;22.80;99.90;;;;;;5092833;28;20231;-60
2023/06/29 07:54:18;;;;;;;1.88;1.77;;;22.90;99.90;;;;;;5092911;28;20307;-60
2023/06/29 07:56:46;;;;;;;2.28;1.95;;;23.10;99.90;;;;;;5092708;28;20220;-60
2023/06/29 07:59:17;;;;;;;1.88;1.75;;;23.20;99.90;;;;;;5092994;28;20283;-60
2023/06/29 08:01:47;;;;;;;5.97;2.28;;;23.30;99.90;;;;;;5092674;28;20196;-60
2023/06/29 08:04:17;;;;;;;3.08;1.35;;;23.30;99.90;;;;;;5092883;28;20203;-61
2023/06/29 08:07:06;;;;;;;1.70;1.60;;;23.30;99.90;;;;;;5092627;28;20608;-59
2023/06/29 08:09:37;;;;;;;6.05;1.70;;;23.20;99.90;;;;;;5076222;28;20196;-60
2023/06/29 08:12:06;;;;;;;1.60;1.50;;;23.10;99.90;;;;;;5092427;28;20224;-61
2023/06/29 08:14:35;;;;;;;2.55;1.58;;;23.20;99.90;;;;;;5092460;28;20224;-61
2023/06/29 08:17:03;;;;;;;2.00;1.90;;;23.30;99.90;;;;;;5091823;28;20495;-60
2023/06/29 08:19:33;;;;;;;2.38;2.17;;;23.40;99.90;;;;;;5091888;28;20215;-61
2023/06/29 08:22:00;;;;;;;2.80;1.73;;;23.50;99.90;;;;;;5092418;28;20204;-61
2023/06/29 08:24:29;;;;;;;2.05;1.80;;;23.70;99.90;;;;;;5092181;28;20286;-61
2023/06/29 08:26:57;;;;;;;3.85;1.83;;;23.80;99.90;;;;;;5092035;28;20230;-60
2023/06/29 08:29:25;;;;;;;3.20;1.73;;;23.90;99.90;;;;;;5092271;28;20292;-60
2023/06/29 08:31:53;;;;;;;7.07;2.38;;;23.90;99.90;;;;;;5092208;28;20299;-61
2023/06/29 08:34:21;;;;;;;2.30;1.60;;;24.00;99.90;;;;;;5091972;28;20223;-61
2023/06/29 08:36:50;;;;;;;5.35;1.90;;;24.10;99.90;;;;;;5091721;28;20643;-61
2023/06/29 08:39:19;;;;;;;2.25;1.70;;;24.20;99.90;;;;;;5091870;28;20268;-61
2023/06/29 08:41:47;;;;;;;1.48;1.40;;;24.30;99.90;;;;;;5092160;28;20246;-61
2023/06/29 08:44:15;;;;;;;6.10;1.33;;;24.50;99.90;;;;;;5091007;28;20275;-60
2023/06/29 08:46:43;;;;;;;1.40;1.25;;;24.60;99.90;;;;;;5091415;28;20281;-61
2023/06/29 08:49:11;;;;;;;1.98;1.65;;;24.70;99.90;;;;;;5091846;28;20207;-61
2023/06/29 08:51:40;;;;;;;3.42;1.73;;;24.80;99.90;;;;;;5091517;28;20231;-61
2023/06/29 08:54:09;;;;;;;1.65;1.55;;;24.90;99.90;;;;;;5091899;28;20212;-60
2023/06/29 08:56:37;;;;;;;1.42;1.30;;;25.00;99.90;;;;;;5091475;28;20617;-61
2023/06/29 08:59:05;;;;;;;1.70;1.60;;;25.10;99.90;;;;;;5092081;28;20208;-62
2023/06/29 09:01:33;;;;;;;1.77;1.30;;;25.30;99.90;;;;;;5091846;28;20283;-61
2023/06/29 09:04:01;;;;;;;1.40;1.33;;;25.40;99.90;;;;;;5091837;28;20203;-60
2023/06/29 09:06:29;;;;;;;2.47;1.63;;;25.50;99.90;;;;;;5090016;28;20227;-61
2023/06/29 09:08:57;;;;;;;3.30;1.58;;;25.50;99.90;;;;;;5091718;28;20234;-60
2023/06/29 09:11:26;;;;;;;2.28;1.17;;;25.60;99.90;;;;;;5091751;28;20196;-61
2023/06/29 09:13:54;;;;;;;3.28;1.65;;;25.70;99.90;;;;;;5091614;28;20224;-60
2023/06/29 09:16:28;;;;;;;2.80;1.92;;;25.80;99.90;;;;;;5091177;28;20288;-61
2023/06/29 09:18:56;;;;;;;3.08;1.48;;;26.00;99.90;;;;;;5091467;28;20200;-61
2023/06/29 09:21:25;;;;;;;2.78;1.50;;;26.10;99.90;;;;;;5091327;28;20709;-61
2023/06/29 09:23:55;;;;;;;3.00;1.60;;;26.30;99.90;;;;;;5091850;28;20224;-60
2023/06/29 09:26:25;;;;;;;6.38;1.40;;;26.50;99.90;;;;;;5091259;28;20239;-61
2023/06/29 09:28:57;;;;;;;2.03;1.20;;;26.70;99.90;;;;;;5094630;28;20203;-61
2023/06/29 09:31:26;;;;;;;1.52;1.40;;;26.80;99.90;;;;;;5095493;28;20271;-60
2023/06/29 09:33:54;;;;;;;1.35;1.25;;;26.90;99.90;;;;;;5095803;28;20226;-62
2023/06/29 09:36:25;;;;;;;1.30;1.20;;;27.00;99.90;;;;;;5095264;28;20694;-60
2023/06/29 09:38:54;;;;;;;2.13;1.20;;;27.10;99.90;;;;;;5095737;28;20196;-61
2023/06/29 09:41:22;;;;;;;3.33;1.35;;;27.20;99.90;;;;;;5094196;28;20212;-61
2023/06/29 09:43:51;;;;;;;1.50;1.20;;;27.20;99.90;;;;;;5095495;28;20251;-60
2023/06/29 09:46:19;;;;;;;1.30;1.00;;;27.10;99.90;;;;;;5095104;28;20196;-61
2023/06/29 09:48:48;;;;;;;2.08;1.48;;;27.10;99.90;;;;;;5095382;28;20725;-61
2023/06/29 09:51:20;;;;;;;3.35;1.65;;;27.10;99.90;;;;;;5094340;28;20291;-62
2023/06/29 09:53:48;;;;;;;4.78;1.35;;;27.00;99.90;;;;;;5094909;28;20853;-61
2023/06/29 09:56:16;;;;;;;1.63;1.42;;;27.10;99.90;;;;;;5094918;28;20196;-61
2023/06/29 09:58:45;;;;;;;1.30;1.30;;;27.30;99.90;;;;;;5095174;28;20256;-61
2023/06/29 10:01:16;;;;;;;3.92;1.02;;;27.60;99.90;;;;;;5094889;28;20233;-61
2023/06/29 10:03:44;;;;;;;3.05;1.00;;;28.00;99.90;;;;;;5095224;28;20199;-61
2023/06/29 10:06:13;;;;;;;0.80;0.80;;;28.20;99.90;;;;;;5094605;28;20667;-61
2023/06/29 10:08:41;;;;;;;0.70;0.70;;;28.40;99.90;;;;;;5094872;28;20227;-63
2023/06/29 10:11:09;;;;;;;2.05;1.25;;;28.40;99.90;;;;;;5094747;28;20243;-61
2023/06/29 10:13:39;;;;;;;1.20;1.10;;;28.20;99.90;;;;;;5078481;28;20197;-61
2023/06/29 10:16:08;;;;;;;1.95;1.23;;;28.00;99.90;;;;;;5082285;28;20204;-61
2023/06/29 10:18:39;;;;;;;1.20;1.10;;;28.00;99.90;;;;;;5094598;28;20310;-62
2023/06/29 10:21:07;;;;;;;1.23;1.08;;;28.20;99.90;;;;;;5094540;28;20228;-61
2023/06/29 10:23:35;;;;;;;3.40;1.17;;;28.50;99.90;;;;;;5077746;28;20234;-60
2023/06/29 10:26:03;;;;;;;2.15;1.10;;;28.50;99.90;;;;;;5094553;28;20192;-61
2023/06/29 10:28:31;;;;;;;1.95;0.95;;;28.30;99.90;;;;;;5094433;28;20215;-62
2023/06/29 10:30:59;;;;;;;4.78;1.08;;;28.20;99.90;;;;;;5094597;28;20257;-61
2023/06/29 10:33:27;;;;;;;2.00;0.90;;;28.10;99.90;;;;;;5094587;28;20773;-61
2023/06/29 10:35:57;;;;;;;2.35;0.90;;;28.00;99.90;;;;;;5093960;28;20220;-61
2023/06/29 10:38:28;;;;;;;3.78;1.45;;;27.90;99.90;;;;;;5094416;28;20231;-61
2023/06/29 10:40:57;;;;;;;2.55;1.35;;;27.80;99.90;;;;;;5093403;28;20253;-61
2023/06/29 10:43:26;;;;;;;1.35;1.10;;;27.70;99.90;;;;;;5094468;28;20237;-62
2023/06/29 10:45:54;;;;;;;1.75;1.13;;;27.60;99.90;;;;;;5093847;28;20192;-61
2023/06/29 10:48:22;;;;;;;4.93;1.50;;;27.60;99.90;;;;;;5094143;28;20749;-60
2023/06/29 10:51:12;;;;;;;1.23;1.10;;;27.50;99.90;;;;;;5094339;28;20200;-61
2023/06/29 10:53:40;;;;;;;2.58;1.40;;;27.30;99.90;;;;;;5077913;28;20261;-62
2023/06/29 10:56:09;;;;;;;1.33;1.10;;;27.30;99.90;;;;;;5093755;28;20220;-62
2023/06/29 10:58:37;;;;;;;2.33;1.50;;;27.20;99.90;;;;;;5093952;28;20269;-62
2023/06/29 11:01:05;;;;;;;2.50;1.67;;;27.10;99.90;;;;;;5093959;28;20710;-61
2023/06/29 11:03:34;;;;;;;2.22;1.55;;;27.10;99.90;;;;;;5094348;28;20192;-62
2023/06/29 11:06:02;;;;;;;2.88;2.00;;;27.10;99.90;;;;;;5093444;28;20200;-63
2023/06/29 11:08:32;;;;;;;3.42;1.67;;;27.10;99.90;;;;;;5093857;28;20698;-61
2023/06/29 11:11:12;;;;;;;2.80;1.80;;;27.10;99.90;;;;;;5093661;28;20249;-61
2023/06/29 11:13:40;;;;;;;3.28;1.92;;;27.00;99.90;;;;;;5077649;28;20203;-61
2023/06/29 11:16:08;;;;;;;3.00;2.15;;;26.90;99.90;;;;;;5093507;28;20243;-62
2023/06/29 11:18:36;;;;;;;2.22;2.13;;;26.80;99.90;;;;;;5093737;28;20281;-62
2023/06/29 11:21:04;;;;;;;2.22;1.83;;;26.70;99.90;;;;;;5093333;28;20231;-62
2023/06/29 11:23:33;;;;;;;2.38;1.92;;;26.60;99.90;;;;;;5093480;28;20230;-62
2023/06/29 11:26:01;;;;;;;1.77;1.77;;;26.50;99.90;;;;;;5091639;28;20247;-63
2023/06/29 11:28:32;;;;;;;3.05;2.30;;;26.40;99.90;;;;;;5093439;28;20743;-62
2023/06/29 11:31:00;;;;;;;4.85;2.38;;;26.40;99.90;;;;;;5093393;28;20196;-62
2023/06/29 11:33:28;;;;;;;3.95;1.85;;;26.30;99.90;;;;;;5093384;28;20249;-62
2023/06/29 11:36:15;;;;;;;4.72;2.25;;;26.20;99.90;;;;;;5092782;28;20710;-63
2023/06/29 11:38:45;;;;;;;3.25;1.92;;;26.20;99.90;;;;;;5093519;28;20285;-61
2023/06/29 11:41:13;;;;;;;3.92;1.90;;;26.10;99.90;;;;;;5093372;28;20224;-61
2023/06/29 11:43:41;;;;;;;2.30;1.75;;;26.10;99.90;;;;;;5093153;28;20232;-61
2023/06/29 11:46:09;;;;;;;3.78;2.00;;;26.00;99.90;;;;;;5093006;28;20220;-62
2023/06/29 11:48:37;;;;;;;4.05;2.03;;;26.00;99.90;;;;;;5092945;28;20273;-62
2023/06/29 11:51:06;;;;;;;5.20;2.15;;;25.90;99.90;;;;;;5092128;28;20196;-62
2023/06/29 11:53:34;;;;;;;3.97;2.05;;;25.80;99.90;;;;;;5093123;28;20200;-62
2023/06/29 11:56:03;;;;;;;2.40;1.73;;;25.80;99.90;;;;;;5092817;28;20261;-61
2023/06/29 11:58:35;;;;;;;3.67;2.28;;;25.80;99.90;;;;;;5092896;28;20274;-61
2023/06/29 12:01:03;;;;;;;4.47;1.95;;;25.70;99.90;;;;;;5092717;28;20196;-62
2023/06/29 12:03:31;;;;;;;5.38;1.85;;;25.70;99.90;;;;;;5092736;28;20257;-62
2023/06/29 12:06:00;;;;;;;2.15;1.75;;;25.60;99.90;;;;;;5092597;28;20246;-62
2023/06/29 12:08:37;;;;;;;4.25;1.90;;;25.60;99.90;;;;;;5092627;28;20741;-61
2023/06/29 12:11:06;;;;;;;3.95;1.98;;;25.60;99.90;;;;;;5092735;28;20210;-62
2023/06/29 12:13:45;;;;;;;2.22;1.83;;;25.50;99.90;;;;;;5089026;27;21087;-59
2023/06/29 12:16:13;;;;;;;5.55;2.20;;;25.50;99.90;;;;;;5089016;28;20251;-59
2023/06/29 12:18:44;;;;;;;3.15;2.28;;;25.50;99.90;;;;;;5089153;28;20263;-59
2023/06/29 12:21:18;;;;;;;3.97;2.40;;;25.50;99.90;;;;;;5089046;28;20200;-59
2023/06/29 12:23:46;;;;;;;2.03;1.90;;;25.50;99.90;;;;;;5088987;28;20208;-59
2023/06/29 12:26:15;;;;;;;2.92;1.95;;;25.60;99.90;;;;;;5088642;28;20281;-60
2023/06/29 12:28:45;;;;;;;7.72;2.20;;;25.60;99.90;;;;;;5088968;28;20277;-59
2023/06/29 12:31:12;;;;;;;2.30;2.05;;;25.60;99.90;;;;;;5088728;28;20242;-59
2023/06/29 12:33:40;;;;;;;3.55;2.00;;;25.60;99.90;;;;;;5088424;28;20281;-62
2023/06/29 12:36:08;;;;;;;6.93;3.00;;;25.60;99.90;;;;;;5088469;28;20292;-61
2023/06/29 12:38:36;;;;;;;3.92;2.30;;;25.70;99.90;;;;;;5088761;28;20228;-61
2023/06/29 12:41:04;;;;;;;4.50;2.58;;;25.70;99.90;;;;;;5088481;28;20235;-62
2023/06/29 12:43:32;;;;;;;5.32;3.10;;;25.80;99.90;;;;;;5088852;28;20192;-61
2023/06/29 12:46:02;;;;;;;13.93;3.10;;;25.90;99.90;;;;;;5088241;28;20200;-61
2023/06/29 12:48:30;;;;;;;5.88;3.33;;;26.00;99.90;;;;;;5088507;28;20666;-61
2023/06/29 12:50:59;;;;;;;5.55;3.60;;;26.10;99.90;;;;;;5088546;28;20204;-61
2023/06/29 12:53:28;;;;;;;6.18;3.67;;;26.10;99.90;;;;;;5088357;28;20224;-61
2023/06/29 12:55:56;;;;;;;3.33;2.85;;;26.20;99.90;;;;;;5088401;28;20200;-61